Faith, SD

3:29 AM MDT on October 23, 2017 (GMT -0600)
Faith | | Change Station
Active Advisory: High Wind Warning

Elev 2582 ft 45.04 °N, 102.02 °W | Updated 1 day ago

Clear
Clear
46 °F
Feels Like 38 °F
N
22
Wind Variable Wind from WNW
Gusts 30 mph

Today
High -- | Low -- °F
--% Chance of Precip.
Yesterday
High -- | Low -- °F
Precip. -- in
Pressure 29.58 in
Visibility -9999.0 miles
Clouds
Windchill 38 °F
Dew Point 40 °F
Humidity 79%
Rainfall 0.03 in
Snow Depth Not available.
7:14 AM 5:49 PM
Waxing Crescent, 12% visible
METAR KD07 211056Z AUTO 30019G26KT 08/04 A2960 RMK AO1 PK WND 30029/0958 SLP015 P0003 T00780044
Pressure 29.58 in
Visibility -9999.0 miles
Clouds
Windchill 38 °F
Dew Point 40 °F
Humidity 79%
Rainfall 0.03 in
Snow Depth Not available.
7:14 AM 5:49 PM
Waxing Crescent, 12% visible
METAR KD07 211056Z AUTO 30019G26KT 08/04 A2960 RMK AO1 PK WND 30029/0958 SLP015 P0003 T00780044

Get Your Daily Forecast Email!

Thanks for signing up!

Be on the lookout for a verification email in your inbox.

You'll start receiving severe weather alerts in your inbox..

×

10-Day Weather Forecast

Almanac

Astronomy

Oct. 23, 2017 Rise Set
Actual Time
Civil Twilight
Nautical Twilight
Astronomical Twilight
Moon
Length of Visible Light
Length of Day
Tomorrow will be .
, % of the Moon is Illuminated

Today's Extremes

State Highs State Lows

Community

WunderPhotos

Category 6

Welcome to Category 6. This is the collective home for Weather Underground's featured writeups by Dr. Jeff Masters (right), Bob Henson (left), Chris Burt, and other regular contributors.

Nearby

Air Quality

  Air Quality AQ Index Pollutant
Not available.

Snow Depth

Station Depth Elevation

Earthquake Activity

City Distance Mag. Time & Date
Minimum magnitude displayed is 2.5.

Coastal Water Temperatures

Place Temperature

Stations

Nearby Weather Stations

Station Location Temp. Windchill Dew Point Humidity Wind Precip. Elev Updated Type
                   

Watches & Warnings

High Wind Warning
Issued: 2:40 AM MDT Oct. 23, 2017 – National Weather Service

... High Wind Warning in effect until 6 PM MDT this evening...

* winds... northwest 30 to 45 mph with gusts up to 60 mph.

* Timing... strong winds will continue today before diminishing
around sunset.

* Impacts... sudden wind gusts can cause drivers to lose control,
especially in lightweight or high profile vehicles. Strong
winds can cause blowing dust, reduced visibility, and flying
debris.

Precautionary/preparedness actions...

A High Wind Warning means 40 mph winds... or gusts over 60 mph...
are expected or occurring.